Time;durP1;ratioP1;P1;durP2;ratioP2;P2;SDS_P1;SDS_P2;PMS_P1;PMS_P2;Temp;Humidity;BMP_temperature;BMP_pressure;BME280_temperature;BME280_humidity;BME280_pressure;Samples;Min_cycle;Max_cycle;Signal;HPM_P1;HPM_P2
2023/09/01 00:02:04;;;;;;;6.88;3.28;;;;;;;12.87;100.00;100465.84;5000051;28;20034;-77
2023/09/01 00:04:39;;;;;;;7.15;3.85;;;;;;;12.84;100.00;100471.56;4999359;28;20034;-77
2023/09/01 00:07:05;;;;;;;6.20;3.10;;;;;;;12.81;100.00;100474.63;4999597;28;20049;-77
2023/09/01 00:09:30;;;;;;;8.50;3.70;;;;;;;12.79;100.00;100465.94;4996035;28;20030;-77
2023/09/01 00:11:55;;;;;;;9.73;3.93;;;;;;;12.79;100.00;100479.34;5014443;28;20040;-77
2023/09/01 00:14:21;;;;;;;8.67;4.00;;;;;;;12.76;100.00;100488.56;5000731;28;20953;-77
2023/09/01 00:16:46;;;;;;;11.93;4.23;;;;;;;12.82;100.00;100489.69;5021441;22;20956;-90
2023/09/01 00:19:12;;;;;;;12.57;5.07;;;;;;;12.75;100.00;100478.84;4993925;28;20123;-91
2023/09/01 00:21:37;;;;;;;9.00;4.63;;;;;;;12.79;100.00;100485.53;4993685;28;20062;-90
2023/09/01 00:24:03;;;;;;;12.40;5.13;;;;;;;12.76;100.00;100474.31;4977306;28;20052;-90
2023/09/01 00:26:29;;;;;;;14.30;5.30;;;;;;;12.63;100.00;100475.78;4996534;28;20033;-90
2023/09/01 00:28:54;;;;;;;8.68;4.50;;;;;;;12.64;100.00;100498.03;5004824;28;20420;-90
2023/09/01 00:31:20;;;;;;;8.50;4.47;;;;;;;12.65;100.00;100507.75;5008805;28;20064;-91
2023/09/01 00:33:46;;;;;;;11.25;4.97;;;;;;;12.66;100.00;100506.72;4993014;28;20500;-91
2023/09/01 00:36:12;;;;;;;11.48;5.72;;;;;;;12.70;100.00;100509.91;4977796;28;20116;-90
2023/09/01 00:38:37;;;;;;;6.50;4.77;;;;;;;12.74;100.00;100516.56;5002303;28;20492;-91
2023/09/01 00:41:02;;;;;;;16.37;5.33;;;;;;;12.84;100.00;100520.63;4994621;28;20041;-90
2023/09/01 00:43:28;;;;;;;14.17;5.10;;;;;;;12.83;100.00;100502.91;4993501;28;20049;-90
2023/09/01 00:45:54;;;;;;;10.40;5.97;;;;;;;12.82;100.00;100503.91;4993716;28;20550;-90
2023/09/01 00:48:20;;;;;;;15.48;6.28;;;;;;;12.85;100.00;100510.72;4993788;28;20038;-90
2023/09/01 00:50:49;;;;;;;13.33;6.50;;;;;;;12.83;100.00;100507.41;4986918;28;20034;-91
2023/09/01 00:53:15;;;;;;;13.13;6.20;;;;;;;12.79;100.00;100493.56;4985895;28;20026;-91
2023/09/01 00:55:40;;;;;;;12.50;6.47;;;;;;;12.85;100.00;100505.38;4985637;28;20088;-90
2023/09/01 00:58:06;;;;;;;12.90;6.00;;;;;;;12.93;100.00;100510.66;4993496;28;20041;-90
2023/09/01 01:00:32;;;;;;;12.30;6.80;;;;;;;12.82;100.00;100506.56;4993615;28;20810;-91
2023/09/01 01:03:04;;;;;;;11.30;6.15;;;;;;;12.80;100.00;100508.59;5007470;28;20045;-91
2023/09/01 01:05:43;;;;;;;13.68;6.28;;;;;;;12.93;100.00;100507.16;4990685;28;20543;-91
2023/09/01 01:08:38;;;;;;;14.98;6.15;;;;;;;12.91;100.00;100515.38;4977093;28;20041;-91
2023/09/01 01:11:49;;;;;;;11.38;6.93;;;;;;;12.92;100.00;100505.47;4938521;29;20080;-90
2023/09/01 01:14:22;;;;;;;15.73;7.22;;;;;;;12.98;100.00;100518.16;4914440;29;20028;-91
2023/09/01 01:16:51;;;;;;;15.48;7.32;;;;;;;12.94;100.00;100504.28;4927356;29;20543;-90
2023/09/01 01:19:32;;;;;;;12.20;7.25;;;;;;;12.90;100.00;100511.03;4918419;29;20031;-90
2023/09/01 01:21:59;;;;;;;20.15;8.80;;;;;;;13.01;100.00;100505.19;4945528;29;20074;-90
2023/09/01 01:24:25;;;;;;;13.38;8.23;;;;;;;13.07;100.00;100509.84;4949589;28;20039;-90
2023/09/01 01:26:51;;;;;;;;;;;;;;;13.02;100.00;100508.72;4941352;28;20035;-89
2023/09/01 01:29:16;;;;;;;17.75;9.30;;;;;;;13.01;100.00;100507.88;4920946;29;20380;-91
2023/09/01 01:31:42;;;;;;;20.35;8.43;;;;;;;13.08;100.00;100524.88;4926464;29;20082;-90
2023/09/01 01:34:24;;;;;;;16.33;7.97;;;;;;;13.15;100.00;100516.94;4915604;29;20071;-91
2023/09/01 01:37:05;;;;;;;16.38;8.68;;;;;;;13.01;100.00;100505.19;4919588;29;20117;-90
2023/09/01 01:39:33;;;;;;;14.93;8.73;;;;;;;13.06;100.00;100504.66;4926112;29;20035;-90
2023/09/01 01:42:09;;;;;;;23.25;9.77;;;;;;;12.97;100.00;100503.94;4924884;29;20039;-90
2023/09/01 01:44:38;;;;;;;14.82;8.60;;;;;;;13.02;100.00;100508.72;4930439;29;20629;-90
2023/09/01 01:47:06;;;;;;;23.08;9.63;;;;;;;12.88;100.00;100499.66;4951024;28;20046;-91
2023/09/01 01:49:32;;;;;;;20.00;9.98;;;;;;;12.85;100.00;100500.88;5003336;28;20022;-91
2023/09/01 01:51:58;;;;;;;19.73;8.90;;;;;;;12.89;100.00;100504.81;4984351;28;20041;-91
2023/09/01 01:54:24;;;;;;;17.70;8.85;;;;;;;12.94;100.00;100512.31;4992484;28;20281;-91
2023/09/01 01:56:49;;;;;;;21.80;8.90;;;;;;;12.84;100.00;100520.63;4992789;28;20088;-90
2023/09/01 01:59:16;;;;;;;17.38;8.55;;;;;;;12.93;100.00;100524.06;4969128;28;20037;-91
2023/09/01 02:01:44;;;;;;;25.23;8.80;;;;;;;12.93;100.00;100521.38;4978115;28;20208;-90
2023/09/01 02:04:10;;;;;;;21.55;9.98;;;;;;;12.83;100.00;100518.97;4967590;28;20481;-90
2023/09/01 02:06:35;;;;;;;16.63;8.73;;;;;;;12.89;100.00;100518.22;4997783;28;20041;-89
2023/09/01 02:09:02;;;;;;;17.27;7.80;;;;;;;12.84;100.00;100519.78;4981995;28;20034;-90
2023/09/01 02:11:28;;;;;;;19.08;8.43;;;;;;;12.86;100.00;100515.09;4965371;28;20037;-90
2023/09/01 02:13:53;;;;;;;13.53;7.43;;;;;;;12.82;100.00;100522.66;5005500;28;20022;-90
2023/09/01 02:16:18;;;;;;;18.77;7.80;;;;;;;12.85;100.00;100527.66;4992314;28;20037;-90
2023/09/01 02:18:43;;;;;;;14.57;7.43;;;;;;;12.83;100.00;100524.31;4993144;28;20026;-90
2023/09/01 02:21:17;;;;;;;21.80;9.10;;;;;;;12.92;100.00;100525.06;4990803;28;20639;-90
2023/09/01 02:23:43;;;;;;;15.38;7.55;;;;;;;12.98;100.00;100536.91;5000152;28;20038;-89
2023/09/01 02:26:08;;;;;;;14.30;7.17;;;;;;;12.93;100.00;100521.38;4976189;28;20034;-89
2023/09/01 02:28:33;;;;;;;14.23;6.87;;;;;;;12.93;100.00;100534.78;4983825;28;20081;-90
2023/09/01 02:31:07;;;;;;;13.57;6.77;;;;;;;12.98;100.00;100528.88;4992801;28;20036;-90
2023/09/01 02:33:33;;;;;;;14.75;6.93;;;;;;;12.97;100.00;100524.50;4989544;28;20022;-90
2023/09/01 02:36:21;;;;;;;14.10;6.37;;;;;;;12.95;100.00;100532.75;4989101;28;20029;-90
2023/09/01 02:38:46;;;;;;;15.07;6.55;;;;;;;12.88;100.00;100529.13;4997082;28;20832;-90
2023/09/01 02:41:14;;;;;;;16.33;7.77;;;;;;;12.99;100.00;100531.34;4985141;28;20063;-89
2023/09/01 02:43:40;;;;;;;12.00;6.22;;;;;;;13.05;100.00;100535.97;4978333;28;20520;-90
2023/09/01 02:46:05;;;;;;;18.43;7.17;;;;;;;12.97;100.00;100536.09;4996073;28;20040;-90
2023/09/01 02:48:30;;;;;;;18.17;7.23;;;;;;;13.01;100.00;100548.06;4978917;28;20220;-90
2023/09/01 02:50:58;;;;;;;21.30;9.20;;;;;;;12.97;100.00;100546.81;4999145;28;20072;-90
2023/09/01 02:53:24;;;;;;;23.73;9.68;;;;;;;13.11;100.00;100550.50;5011076;28;20044;-90
2023/09/01 02:55:49;;;;;;;21.02;9.50;;;;;;;13.02;100.00;100554.28;5000469;28;20021;-89
2023/09/01 02:58:15;;;;;;;16.97;8.90;;;;;;;13.13;100.00;100553.81;5011081;28;20396;-90
2023/09/01 03:00:40;;;;;;;17.10;10.10;;;;;;;12.96;100.00;100541.63;5004584;28;20026;-90
2023/09/01 03:03:06;;;;;;;18.27;10.18;;;;;;;12.98;100.00;100548.44;5003371;28;20143;-90
2023/09/01 03:05:31;;;;;;;21.23;9.73;;;;;;;13.04;100.00;100546.88;4989556;28;20096;-90
2023/09/01 03:07:58;;;;;;;15.97;9.33;;;;;;;13.07;100.00;100552.72;5002613;28;20121;-89
2023/09/01 03:10:23;;;;;;;;;;;;;;;13.16;100.00;100558.84;4994953;28;20033;-89
2023/09/01 03:12:48;;;;;;;;;;;;;;;13.21;100.00;100559.09;5002496;28;20389;-90
2023/09/01 03:15:15;;;;;;;11.33;6.47;;;;;;;13.14;100.00;100554.66;4985209;28;19909;-90
2023/09/01 03:17:40;;;;;;;24.77;10.25;;;;;;;13.18;100.00;100542.53;4988399;28;20034;-90
2023/09/01 03:20:09;;;;;;;20.23;9.80;;;;;;;13.26;100.00;100551.34;5012156;28;20030;-90
2023/09/01 03:22:35;;;;;;;24.08;10.93;;;;;;;13.20;100.00;100553.91;5003086;28;20281;-89
2023/09/01 03:25:01;;;;;;;21.45;11.43;;;;;;;13.25;100.00;100554.19;4997448;28;20034;-90
2023/09/01 03:27:26;;;;;;;22.17;9.83;;;;;;;13.28;100.00;100548.50;4999402;28;20594;-90
2023/09/01 03:29:55;;;;;;;25.93;11.90;;;;;;;13.28;100.00;100548.50;4982570;28;20033;-90
2023/09/01 03:32:23;;;;;;;26.88;12.40;;;;;;;13.25;100.00;100547.00;4991490;28;20029;-90
2023/09/01 03:34:50;;;;;;;29.00;11.90;;;;;;;13.22;100.00;100541.16;4998318;28;20084;-91
2023/09/01 03:37:15;;;;;;;27.00;14.18;;;;;;;13.23;100.00;100550.88;4990493;28;20029;-90
2023/09/01 03:39:40;;;;;;;26.30;13.57;;;;;;;13.20;100.00;100535.97;4982578;28;20038;-90
2023/09/01 03:42:06;;;;;;;22.57;12.40;;;;;;;13.18;100.00;100539.88;4998492;28;20061;-90
2023/09/01 03:44:31;;;;;;;22.50;13.87;;;;;;;13.21;100.00;100542.19;4997901;28;20089;-90
2023/09/01 03:46:58;;;;;;;25.40;13.80;;;;;;;13.15;100.00;100543.75;4982673;28;20037;-90
2023/09/01 03:49:26;;;;;;;23.08;12.07;;;;;;;13.15;100.00;100538.38;4998647;28;20037;-91
2023/09/01 03:51:51;;;;;;;23.20;11.43;;;;;;;13.11;100.00;100534.44;5005342;28;20022;-91
2023/09/01 03:54:17;;;;;;;21.30;11.53;;;;;;;13.10;100.00;100535.44;5005282;28;20021;-89
2023/09/01 03:56:42;;;;;;;22.53;11.87;;;;;;;13.14;100.00;100539.41;4996488;28;20501;-90
2023/09/01 03:59:07;;;;;;;23.33;12.90;;;;;;;13.03;100.00;100540.69;4997969;28;20038;-90
2023/09/01 04:01:33;;;;;;;39.17;13.97;;;;;;;13.04;100.00;100534.34;4999369;28;20034;-89
2023/09/01 04:04:00;;;;;;;26.43;14.63;;;;;;;13.12;100.00;100538.75;4981412;28;20053;-90
2023/09/01 04:06:25;;;;;;;25.90;13.32;;;;;;;13.16;100.00;100547.25;4998918;28;20033;-90
2023/09/01 04:08:50;;;;;;;28.60;14.67;;;;;;;13.13;100.00;100544.94;4998881;28;20030;-90
2023/09/01 04:11:16;;;;;;;34.90;16.03;;;;;;;13.19;100.00;100549.59;4996716;28;20944;-90
2023/09/01 04:13:42;;;;;;;29.35;15.50;;;;;;;13.22;100.00;100554.56;4985235;28;20034;-90
2023/09/01 04:16:08;;;;;;;31.23;16.00;;;;;;;13.12;100.00;100546.81;4994831;28;20496;-90
2023/09/01 04:18:33;;;;;;;29.97;16.30;;;;;;;13.20;100.00;100553.91;4984831;28;20023;-90
2023/09/01 04:20:59;;;;;;;28.07;13.90;;;;;;;13.18;100.00;100555.94;4994543;28;20526;-89
2023/09/01 04:23:25;;;;;;;26.52;15.55;;;;;;;13.24;100.00;100563.25;4994195;28;20081;-90
2023/09/01 04:25:50;;;;;;;26.65;14.50;;;;;;;13.24;100.00;100563.25;4994806;28;20041;-90
2023/09/01 04:28:19;;;;;;;27.92;16.38;;;;;;;13.21;100.00;100560.97;4994797;28;20022;-90
2023/09/01 04:30:46;;;;;;;27.50;14.73;;;;;;;13.13;100.00;100561.03;4995337;28;20049;-90
2023/09/01 04:33:12;;;;;;;27.35;16.70;;;;;;;13.09;100.00;100569.44;4993920;28;20075;-90
2023/09/01 04:35:38;;;;;;;32.83;15.02;;;;;;;13.15;100.00;100575.09;4977345;28;20106;-90
2023/09/01 04:38:04;;;;;;;33.60;17.00;;;;;;;13.14;100.00;100573.44;4994306;28;20441;-90
2023/09/01 04:40:30;;;;;;;29.50;15.83;;;;;;;13.09;100.00;100579.34;4994242;28;20068;-90
2023/09/01 04:42:55;;;;;;;26.85;15.50;;;;;;;13.10;100.00;100583.69;4998321;28;20528;-90
2023/09/01 04:45:22;;;;;;;32.00;16.95;;;;;;;13.16;100.00;100577.59;4977114;28;20025;-89
2023/09/01 04:47:48;;;;;;;30.45;16.17;;;;;;;13.17;100.00;100578.41;4977215;28;20026;-90
2023/09/01 04:50:14;;;;;;;28.30;16.05;;;;;;;13.20;100.00;100572.69;4977394;28;20030;-90
2023/09/01 04:52:39;;;;;;;22.25;14.85;;;;;;;13.30;100.00;100584.00;4998791;28;20500;-90
2023/09/01 04:55:05;;;;;;;20.97;13.10;;;;;;;13.32;100.00;100573.91;4976680;28;20032;-90
2023/09/01 04:57:31;;;;;;;23.95;13.48;;;;;;;13.35;100.00;100576.25;4978852;28;20041;-89
2023/09/01 04:59:57;;;;;;;27.33;13.90;;;;;;;13.42;100.00;100582.53;4993207;28;20519;-90
2023/09/01 05:02:22;;;;;;;21.77;12.32;;;;;;;13.51;100.00;100586.78;4993363;28;20028;-91
2023/09/01 05:04:47;;;;;;;21.80;12.80;;;;;;;13.55;100.00;100578.34;4989551;28;20038;-91
2023/09/01 05:07:13;;;;;;;21.77;12.00;;;;;;;13.57;100.00;100579.84;4985213;28;20046;-91
2023/09/01 05:09:39;;;;;;;20.90;10.88;;;;;;;13.61;100.00;100588.34;4984434;28;20121;-92
2023/09/01 05:12:04;;;;;;;18.63;9.87;;;;;;;13.65;100.00;100573.53;4990891;28;20042;-91
2023/09/01 05:14:30;;;;;;;17.13;9.55;;;;;;;13.65;100.00;100576.22;4992865;28;20037;-91
2023/09/01 05:16:56;;;;;;;13.93;8.83;;;;;;;13.62;100.00;100576.59;4993050;28;20030;-91
2023/09/01 05:19:21;;;;;;;18.77;9.60;;;;;;;13.69;100.00;100582.88;4984712;28;20030;-92
2023/09/01 05:21:48;;;;;;;17.63;9.65;;;;;;;13.83;100.00;100579.34;4992920;28;20037;-91
2023/09/01 05:24:13;;;;;;;16.05;10.30;;;;;;;13.85;100.00;100581.84;4992396;28;20034;-91
2023/09/01 05:26:38;;;;;;;16.83;10.23;;;;;;;13.90;100.00;100582.94;4992858;28;20041;-92
2023/09/01 05:29:04;;;;;;;16.50;9.33;;;;;;;13.99;100.00;100593.56;4976321;28;20022;-90
2023/09/01 05:31:29;;;;;;;17.83;10.27;;;;;;;13.89;100.00;100583.13;4992868;28;20030;-91
2023/09/01 05:33:59;;;;;;;18.52;9.73;;;;;;;13.98;100.00;100592.75;4997677;28;20034;-90
2023/09/01 05:36:24;;;;;;;16.07;10.03;;;;;;;14.00;100.00;100595.22;4992621;28;20026;-91
2023/09/01 05:38:49;;;;;;;22.07;10.97;;;;;;;14.04;100.00;100597.34;4984627;28;20400;-90
2023/09/01 05:41:15;;;;;;;14.93;9.50;;;;;;;14.10;100.00;100601.13;4991011;28;20027;-92
2023/09/01 05:43:40;;;;;;;15.13;8.77;;;;;;;14.21;100.00;100606.03;4994909;28;20041;-92
2023/09/01 05:46:06;;;;;;;16.52;8.52;;;;;;;14.43;100.00;100609.53;4992198;28;20022;-91
2023/09/01 05:48:31;;;;;;;12.47;7.97;;;;;;;14.39;100.00;100602.88;4993552;28;20038;-92
2023/09/01 05:50:57;;;;;;;18.02;9.20;;;;;;;14.45;100.00;100604.81;5006038;28;20103;-93
2023/09/01 05:53:23;;;;;;;11.77;7.67;;;;;;;14.87;100.00;100615.78;4976518;28;20036;-92
2023/09/01 05:55:48;;;;;;;15.25;7.65;;;;;;;15.11;100.00;100599.22;4976714;28;20373;-91
2023/09/01 05:58:14;;;;;;;14.70;7.47;;;;;;;15.50;100.00;100605.88;4992056;28;20488;-91
2023/09/01 06:00:40;;;;;;;;;;;;;;;15.58;100.00;100589.56;4976053;28;20037;-91
2023/09/01 06:03:05;;;;;;;12.57;6.65;;;;;;;16.19;100.00;100591.50;4987270;28;19918;-92
2023/09/01 06:05:31;;;;;;;10.37;5.17;;;;;;;16.55;100.00;100584.09;4993244;28;20040;-91
2023/09/01 06:07:56;;;;;;;15.27;4.90;;;;;;;16.90;100.00;100559.66;4978739;23;20046;-76
2023/09/01 06:10:22;;;;;;;12.03;5.20;;;;;;;17.34;100.00;100558.16;4970034;28;20445;-75
2023/09/01 06:12:47;;;;;;;11.27;4.90;;;;;;;17.38;100.00;100521.63;4983757;28;20101;-77
2023/09/01 06:15:13;;;;;;;9.18;4.63;;;;;;;17.38;100.00;100502.72;4984212;28;20070;-78
2023/09/01 06:17:38;;;;;;;8.70;4.70;;;;;;;17.77;100.00;100500.88;4996006;23;20444;-82
2023/09/01 06:20:06;;;;;;;12.65;4.60;;;;;;;17.47;100.00;100445.59;4989448;28;20033;-84
2023/09/01 06:22:31;;;;;;;7.65;4.25;;;;;;;17.72;100.00;100480.78;4978448;28;20027;-82
2023/09/01 06:24:56;;;;;;;8.77;3.50;;;;;;;16.78;100.00;100422.78;5001854;28;20746;-84
2023/09/01 06:27:22;;;;;;;7.53;4.50;;;;;;;16.90;100.00;100492.25;4990950;28;20034;-84
2023/09/01 06:29:47;;;;;;;11.47;5.40;;;;;;;16.50;100.00;100509.25;4995504;28;20080;-84
2023/09/01 06:32:13;;;;;;;7.30;4.47;;;;;;;16.05;100.00;100519.78;4996107;28;20041;-84
2023/09/01 06:34:39;;;;;;;8.50;5.43;;;;;;;16.04;100.00;100567.44;4994773;28;20033;-85
2023/09/01 06:37:04;;;;;;;9.47;4.63;;;;;;;16.06;100.00;100604.94;5023369;28;20084;-83
2023/09/01 06:39:29;;;;;;;9.37;4.63;;;;;;;15.90;100.00;100581.06;4980441;28;20389;-85
2023/09/01 06:41:55;;;;;;;12.37;5.63;;;;;;;15.86;100.00;100618.31;4997783;28;20034;-85
2023/09/01 06:44:20;;;;;;;13.00;5.72;;;;;;;16.34;100.00;100625.50;5009029;28;20089;-85
2023/09/01 06:46:46;;;;;;;8.30;5.50;;;;;;;16.35;100.00;100586.78;5003066;28;20053;-84
2023/09/01 06:49:11;;;;;;;8.10;5.20;;;;;;;16.74;100.00;100609.41;4977901;28;20037;-83
2023/09/01 06:51:37;;;;;;;7.83;4.93;;;;;;;16.79;100.00;100585.41;4991500;28;20844;-84
2023/09/01 06:54:02;;;;;;;7.00;3.97;;;;;;;16.55;100.00;100557.16;4974756;28;20038;-83
2023/09/01 06:56:28;;;;;;;7.10;5.03;;;;;;;16.92;100.00;100555.72;4991042;28;20096;-85
2023/09/01 06:58:53;;;;;;;12.37;4.37;;;;;;;17.42;100.00;100547.97;5007955;28;20301;-85
2023/09/01 07:01:18;;;;;;;6.13;3.20;;;;;;;17.67;100.00;100491.38;4992506;28;20038;-85
2023/09/01 07:03:44;;;;;;;10.73;4.03;;;;;;;17.80;100.00;100451.88;4998427;28;20597;-86
2023/09/01 07:06:09;;;;;;;8.70;4.03;;;;;;;18.46;100.00;100464.91;5009217;28;20053;-85
2023/09/01 07:08:35;;;;;;;8.40;3.90;;;;;;;18.79;100.00;100381.84;4985242;28;20030;-84
2023/09/01 07:11:05;;;;;;;8.13;3.53;;;;;;;18.98;100.00;100335.59;5010454;28;20042;-84
2023/09/01 07:13:31;;;;;;;8.38;4.95;;;;;;;18.16;100.00;100250.47;4981101;28;20099;-83
2023/09/01 07:15:57;;;;;;;9.27;4.32;;;;;;;17.89;100.00;100266.97;4997997;28;20493;-83
2023/09/01 07:18:23;;;;;;;6.50;3.50;;;;;;;17.78;100.00;100330.56;4962670;28;20042;-83
2023/09/01 07:20:49;;;;;;;9.00;3.83;;;;;;;17.33;100.00;100367.63;4975007;28;20022;-85
2023/09/01 07:23:14;;;;;;;;;;;;;;;17.12;100.00;100401.16;4992741;28;20543;-86
2023/09/01 07:25:40;;;;;;;8.93;4.53;;;;;;;17.30;100.00;100447.97;4997211;28;20003;-84
2023/09/01 07:28:06;;;;;;;11.20;4.80;;;;;;;16.95;100.00;100457.41;4973274;28;20532;-83
2023/09/01 07:30:32;;;;;;;7.80;4.47;;;;;;;16.70;100.00;100528.13;4977253;28;20638;-84
2023/09/01 07:32:58;;;;;;;;;;;;;;;16.80;100.00;100573.56;4982420;28;20420;-85
2023/09/01 07:35:23;;;;;;;8.98;4.65;;;;;;;16.70;100.00;100571.25;5006108;28;19910;-85
2023/09/01 07:37:49;;;;;;;7.10;4.22;;;;;;;16.53;100.00;100570.00;5001380;28;20484;-85
2023/09/01 07:40:14;;;;;;;7.87;4.80;;;;;;;16.25;100.00;100579.91;5003585;28;20042;-84
2023/09/01 07:42:39;;;;;;;14.87;5.37;;;;;;;16.95;100.00;100643.47;4989854;28;20076;-85
2023/09/01 07:45:05;;;;;;;9.40;5.03;;;;;;;17.17;100.00;100572.09;4967306;28;20030;-85
2023/09/01 07:47:31;;;;;;;8.00;3.20;;;;;;;17.96;100.00;100535.09;4979649;28;20037;-85
2023/09/01 07:49:56;;;;;;;7.10;4.00;;;;;;;18.23;100.00;100456.56;4987306;28;20042;-83
2023/09/01 07:52:21;;;;;;;5.77;3.03;;;;;;;17.91;100.00;100372.84;4988213;28;20109;-84
2023/09/01 07:54:50;;;;;;;7.30;3.43;;;;;;;18.28;100.00;100378.38;4982259;28;20041;-85
2023/09/01 07:57:15;;;;;;;9.35;4.65;;;;;;;18.40;100.00;100363.06;4989314;28;20026;-85
2023/09/01 07:59:41;;;;;;;5.80;3.20;;;;;;;18.41;100.00;100426.91;5004697;28;20034;-84
2023/09/01 08:02:06;;;;;;;9.80;3.17;;;;;;;17.58;100.00;100371.19;4966466;28;20034;-84
2023/09/01 08:04:31;;;;;;;12.20;4.10;;;;;;;16.99;100.00;100451.38;5001947;28;20503;-83
2023/09/01 08:06:59;;;;;;;7.87;3.70;;;;;;;17.00;100.00;100515.06;5004247;28;20284;-83
2023/09/01 08:09:25;;;;;;;10.20;3.75;;;;;;;16.66;100.00;100518.81;4974606;28;20037;-85
2023/09/01 08:11:51;;;;;;;7.18;3.50;;;;;;;16.91;100.00;100561.34;4990149;28;20033;-84
2023/09/01 08:14:16;;;;;;;8.93;4.10;;;;;;;16.46;100.00;100533.13;4970856;28;20508;-82
2023/09/01 08:16:42;;;;;;;8.43;4.30;;;;;;;16.73;100.00;100578.94;4996874;28;20417;-82
2023/09/01 08:19:07;;;;;;;10.00;3.65;;;;;;;17.05;100.00;100616.94;5002911;28;20034;-85
2023/09/01 08:21:33;;;;;;;6.88;3.83;;;;;;;17.40;100.00;100582.44;4966748;28;20069;-84
2023/09/01 08:23:59;;;;;;;10.63;4.57;;;;;;;17.07;100.00;100526.69;4988888;28;20042;-85
2023/09/01 08:26:25;;;;;;;9.00;3.78;;;;;;;17.31;100.00;100559.41;4980767;28;20037;-85
2023/09/01 08:28:51;;;;;;;10.30;4.35;;;;;;;17.68;100.00;100546.22;4984132;28;20026;-83
2023/09/01 08:31:16;;;;;;;9.15;3.72;;;;;;;17.99;100.00;100526.56;4989518;28;20041;-84
2023/09/01 08:33:42;;;;;;;8.33;4.20;;;;;;;18.00;100.00;100501.19;4991454;28;20614;-86
2023/09/01 08:36:10;;;;;;;5.15;3.50;;;;;;;18.00;100.00;100447.16;4975203;28;20061;-86
2023/09/01 08:38:35;;;;;;;6.63;3.55;;;;;;;18.08;100.00;100395.59;5005220;28;20033;-83
2023/09/01 08:41:05;;;;;;;9.57;4.53;;;;;;;17.69;100.00;100373.19;4975631;28;20037;-84
2023/09/01 08:43:38;;;;;;;7.25;3.67;;;;;;;18.07;100.00;100458.75;4991945;28;20068;-83
2023/09/01 08:46:04;;;;;;;10.50;4.22;;;;;;;18.30;100.00;100441.94;4973073;28;20035;-85
2023/09/01 08:48:30;;;;;;;9.25;3.95;;;;;;;18.19;100.00;100444.53;5010506;28;20033;-85
2023/09/01 08:50:56;;;;;;;4.18;2.90;;;;;;;18.03;100.00;100456.75;4974080;28;20115;-84
2023/09/01 08:53:23;;;;;;;8.10;3.38;;;;;;;17.96;100.00;100464.88;4986391;28;20072;-85
2023/09/01 08:55:48;;;;;;;;;;;;;;;17.79;100.00;100456.41;4991609;28;20037;-83
2023/09/01 08:58:14;;;;;;;8.65;3.50;;;;;;;17.48;100.00;100419.44;4990670;28;19913;-85
2023/09/01 09:00:40;;;;;;;5.53;3.05;;;;;;;17.14;100.00;100480.81;4985038;28;20045;-85
2023/09/01 09:03:05;;;;;;;6.50;3.13;;;;;;;17.25;100.00;100577.25;4976939;28;20030;-84
2023/09/01 09:05:33;;;;;;;4.82;3.05;;;;;;;17.21;100.00;100543.66;4976441;28;20446;-84
2023/09/01 09:08:00;;;;;;;6.97;2.92;;;;;;;17.35;100.00;100575.97;4989004;28;20034;-84
2023/09/01 09:10:36;;;;;;;7.85;2.97;;;;;;;17.46;100.00;100589.66;4991566;28;20029;-81
2023/09/01 09:13:24;;;;;;;8.30;2.40;;;;;;;17.75;100.00;100590.22;4975648;28;20042;-84
2023/09/01 09:16:15;;;;;;;4.78;2.45;;;;;;;18.07;100.00;100561.41;4990408;28;20054;-85
2023/09/01 09:18:44;;;;;;;5.88;1.95;;;;;;;18.19;100.00;100444.53;4985101;28;20049;-84
2023/09/01 09:21:30;;;;;;;4.50;2.42;;;;;;;18.55;100.00;100479.78;4972676;28;20026;-85
2023/09/01 09:23:58;;;;;;;8.13;2.38;;;;;;;18.62;100.00;100392.41;4974362;28;20064;-80
2023/09/01 09:26:27;;;;;;;5.15;1.83;;;;;;;18.51;100.00;100356.09;5003182;28;20029;-83
2023/09/01 09:28:54;;;;;;;6.95;2.20;;;;;;;18.69;100.00;100380.47;4987674;28;20069;-85
2023/09/01 09:31:30;;;;;;;4.03;2.00;;;;;;;18.41;100.00;100335.00;4975354;28;20503;-85
2023/09/01 09:33:56;;;;;;;5.13;2.08;;;;;;;18.55;100.00;100339.22;4999860;28;20050;-85
2023/09/01 09:36:32;;;;;;;9.70;2.35;;;;;;;18.89;100.00;100336.16;5006507;28;20030;-88
2023/09/01 09:38:57;;;;;;;5.85;2.55;;;;;;;18.83;100.00;100262.16;4990297;28;20405;-86
2023/09/01 09:41:26;;;;;;;12.70;2.30;;;;;;;19.09;100.00;100252.03;4987095;28;20034;-88
2023/09/01 09:43:51;;;;;;;8.82;2.22;;;;;;;20.32;100.00;100320.84;5005185;28;20026;-87
2023/09/01 09:46:19;;;;;;;9.23;2.23;;;;;;;21.12;100.00;100213.41;5003483;28;20084;-87
2023/09/01 09:48:45;;;;;;;5.85;2.10;;;;;;;22.11;100.00;99997.19;4972698;28;20049;-87
2023/09/01 09:51:11;;;;;;;7.43;2.13;;;;;;;22.81;100.00;99738.78;4978397;28;20156;-84
2023/09/01 09:53:38;;;;;;;5.10;2.00;;;;;;;23.21;100.00;99591.03;4968281;28;20281;-88
2023/09/01 09:56:19;;;;;;;5.43;1.92;;;;;;;22.67;100.00;99263.22;4969002;28;20034;-83
2023/09/01 09:58:47;;;;;;;4.13;1.98;;;;;;;24.13;100.00;99388.19;4970115;28;20042;-82
2023/09/01 10:01:21;;;;;;;3.20;1.23;;;;;;;23.79;100.00;99288.19;4994774;28;20034;-87
2023/09/01 10:03:47;;;;;;;8.32;2.10;;;;;;;23.89;100.00;99209.06;4968573;28;20042;-85
2023/09/01 10:06:13;;;;;;;;;;;;;;;23.82;100.00;98976.97;4997006;28;20026;-84
2023/09/01 10:08:39;;;;;;;3.63;1.55;;;;;;;23.35;100.00;98981.34;4974947;28;19940;-83
2023/09/01 10:11:07;;;;;;;3.92;1.33;;;;;;;22.50;100.00;99084.09;5003684;28;20038;-85
2023/09/01 10:13:34;;;;;;;11.00;1.70;;;;;;;21.36;100.00;99257.66;4997814;28;20030;-84
2023/09/01 10:16:00;;;;;;;2.75;1.58;;;;;;;22.08;100.00;99536.50;4999055;28;20037;-84
2023/09/01 10:18:26;;;;;;;5.57;2.60;;;;;;;21.95;100.00;99487.28;4988858;28;20034;-83
2023/09/01 10:20:51;;;;;;;4.07;1.30;;;;;;;22.58;100.00;99811.59;4974471;28;20507;-85
2023/09/01 10:23:17;;;;;;;6.47;2.22;;;;;;;22.26;100.00;99297.88;4968819;28;20136;-85
2023/09/01 10:26:15;;;;;;;2.97;1.73;;;;;;;22.62;100.00;99437.31;4999892;28;20041;-85
2023/09/01 10:28:58;;;;;;;6.53;1.55;;;;;;;24.26;100.00;99292.13;4977238;28;20038;-84
2023/09/01 10:31:24;;;;;;;2.97;1.85;;;;;;;24.83;98.74;99334.06;4973525;28;20038;-84
2023/09/01 10:34:27;;;;;;;6.25;1.95;;;;;;;25.05;94.40;99095.16;4999462;28;20034;-87
2023/09/01 10:37:30;;;;;;;3.22;1.27;;;;;;;24.01;92.65;98739.88;4946456;28;20417;-87
2023/09/01 10:39:56;;;;;;;3.92;1.40;;;;;;;22.50;93.56;98618.28;4952342;28;20512;-82
2023/09/01 10:42:38;;;;;;;;;;;;;;;21.81;100.00;99156.34;4954686;28;20186;-86
2023/09/01 10:45:06;;;;;;;4.47;1.50;;;;;;;21.59;100.00;99316.91;4954729;28;20037;-85
2023/09/01 10:47:31;;;;;;;5.05;2.13;;;;;;;21.04;100.00;99481.97;4958839;28;20043;-84
2023/09/01 10:50:01;;;;;;;4.67;1.60;;;;;;;20.50;100.00;99720.66;4951956;28;20043;-83
2023/09/01 10:52:28;;;;;;;4.20;1.52;;;;;;;20.49;100.00;99933.22;4950761;28;20631;-85
2023/09/01 10:54:59;;;;;;;4.47;1.27;;;;;;;20.22;100.00;100019.78;4934426;28;20583;-85
2023/09/01 10:57:44;;;;;;;3.17;1.23;;;;;;;20.07;100.00;100085.34;4964437;28;20039;-86
2023/09/01 11:00:29;;;;;;;4.72;1.45;;;;;;;19.65;100.00;100052.25;4937675;28;20062;-85
2023/09/01 11:03:28;;;;;;;2.78;1.30;;;;;;;19.65;100.00;100050.34;4950122;28;20039;-85
2023/09/01 11:05:55;;;;;;;4.82;1.70;;;;;;;18.85;100.00;100092.41;4969376;28;20051;-86
2023/09/01 11:08:21;;;;;;;6.78;1.75;;;;;;;18.01;100.00;100259.78;4953181;28;20062;-83
2023/09/01 11:10:46;;;;;;;3.85;1.60;;;;;;;18.17;100.00;100411.50;4938135;28;20071;-85
2023/09/01 11:13:16;;;;;;;4.77;1.50;;;;;;;18.14;100.00;100470.38;4969011;28;20072;-84
2023/09/01 11:15:49;;;;;;;2.63;1.85;;;;;;;18.16;100.00;100483.63;4977356;28;20030;-85
2023/09/01 11:18:16;;;;;;;4.35;1.42;;;;;;;17.90;100.00;100441.44;4976986;28;20026;-85